CTN553 LDOS-EDDM
Flight info
| Callsign | CTN553 |
|---|---|
| Flight time | N/A |
| Altitude | 38000 |
| Route | BAREB DCT AMADI Q113 NAPSA NAPSA1B |
| Aircraft | A320/M-SDE3FGHIRWY/LB1 |
Departure
| Time | 2026-05-07 02:19 |
|---|---|
| Airport | Osijek Airport (LDOS) |
Arrival
| Time | N/A |
|---|---|
| Airport | Munich Airport (EDDM) |
| Time | Latitude | Longitude | Altitude | Speed | Heading |
|---|---|---|---|---|---|
| 2026-05-07 02:16 | 45.46480 | 18.80832 | 300 ft | 0 kts | 194° |
| 2026-05-07 02:16 | 45.46427 | 18.80813 | 300 ft | 20 kts | 194° |
| 2026-05-07 02:16 | 45.46309 | 18.80881 | 301 ft | 19 kts | 99° |
| 2026-05-07 02:17 | 45.46257 | 18.81098 | 300 ft | 27 kts | 112° |
| 2026-05-07 02:17 | 45.46172 | 18.81382 | 299 ft | 35 kts | 111° |
| 2026-05-07 02:17 | 45.46078 | 18.81736 | 300 ft | 41 kts | 110° |
| 2026-05-07 02:17 | 45.45973 | 18.82141 | 297 ft | 46 kts | 110° |
| 2026-05-07 02:18 | 45.45882 | 18.82511 | 302 ft | 21 kts | 98° |
| 2026-05-07 02:18 | 45.45855 | 18.82615 | 301 ft | 10 kts | 204° |
| 2026-05-07 02:18 | 45.45858 | 18.82566 | 300 ft | 0 kts | 292° |
| 2026-05-07 02:19 | 45.45866 | 18.82537 | 300 ft | 25 kts | 292° |
| 2026-05-07 02:19 | 45.45966 | 18.82182 | 299 ft | 90 kts | 291° |
| 2026-05-07 02:19 | 45.46290 | 18.80965 | 316 ft | 167 kts | 289° |
| 2026-05-07 02:19 | 45.46729 | 18.79361 | 1054 ft | 177 kts | 291° |
| 2026-05-07 02:20 | 45.47199 | 18.77731 | 1942 ft | 177 kts | 290° |
| 2026-05-07 02:20 | 45.47641 | 18.76154 | 2722 ft | 169 kts | 290° |
| 2026-05-07 02:20 | 45.48027 | 18.74538 | 3253 ft | 176 kts | 283° |
| 2026-05-07 02:20 | 45.48215 | 18.72785 | 3848 ft | 181 kts | 271° |
| 2026-05-07 02:21 | 45.48111 | 18.70983 | 4614 ft | 185 kts | 259° |
| 2026-05-07 02:21 | 45.47759 | 18.69218 | 5410 ft | 186 kts | 249° |
| 2026-05-07 02:21 | 45.47209 | 18.67546 | 6244 ft | 186 kts | 242° |
| 2026-05-07 02:21 | 45.46544 | 18.65977 | 6945 ft | 184 kts | 237° |
| 2026-05-07 02:22 | 45.45800 | 18.64534 | 7581 ft | 178 kts | 231° |
| 2026-05-07 02:22 | 45.44980 | 18.63252 | 8163 ft | 173 kts | 224° |
| 2026-05-07 02:22 | 45.44077 | 18.62166 | 8720 ft | 169 kts | 216° |
| 2026-05-07 02:22 | 45.43044 | 18.61237 | 9364 ft | 181 kts | 209° |
| 2026-05-07 02:23 | 45.41883 | 18.60447 | 10106 ft | 189 kts | 203° |